Open Full Screen Window  High Contrast Mode
Wind Gusting 17 knots
13
September 02, 2014 12:37 PM EDT
Weather Information
Wind Direction
  240 °
Wind Speed
  13 kt (15 mph)
Wind Gust
  17 kt (20 mph)
Altimeter
29.97 in
Visibility
10 SM
Temperature
25° C
77° F
Dewpoint
20° C
68° F
Humidity
74%
1hr Rain Fall
00.00 in.
24hr Rain Fall
00.44 in.
Sky Condition
Broken @ 2,100 ft
Broken @ 1,700 ft
MVFR

METAR KI69 021637Z AUTO 24013G17KT 10SM BKN017 BKN021 25/20 A2997 RMK AO1

*Background is not an actual portrayal of the airport.